createdAt,value
2022-10-27T00:02:21.407Z,98493.09
2022-10-27T00:04:51.091Z,98491.22
2022-10-27T00:07:19.387Z,98473.91
2022-10-27T00:09:47.823Z,98476.44
2022-10-27T00:12:16.135Z,98481.47
2022-10-27T00:14:44.642Z,98485.75
2022-10-27T00:17:12.927Z,98490.91
2022-10-27T00:19:41.242Z,98496.88
2022-10-27T00:22:10.977Z,98495.25
2022-10-27T00:24:39.250Z,98490.09
2022-10-27T00:27:08.557Z,98501.28
2022-10-27T00:29:36.916Z,98499.47
2022-10-27T00:32:05.500Z,98496.84
2022-10-27T00:34:33.745Z,98491.59
2022-10-27T00:37:02.001Z,98498.53
2022-10-27T00:39:31.633Z,98497.63
2022-10-27T00:41:59.914Z,98504.41
2022-10-27T00:44:38.568Z,98497.22
2022-10-27T00:47:10.652Z,98497.09
2022-10-27T00:49:42.811Z,98511.72
2022-10-27T00:52:14.769Z,98510.78
2022-10-27T00:54:44.570Z,98514.91
2022-10-27T00:57:13.950Z,98515.81
2022-10-27T00:59:42.971Z,98517.41
2022-10-27T01:02:12.185Z,98520.91
2022-10-27T01:04:46.608Z,98522.75
2022-10-27T01:07:16.382Z,98518.50
2022-10-27T01:09:46.687Z,98521.88
2022-10-27T01:12:15.038Z,98518.28
2022-10-27T01:14:44.001Z,98517.16
2022-10-27T01:17:20.183Z,98522.94
2022-10-27T01:20:06.048Z,98515.03
2022-10-27T01:22:38.405Z,98521.84
2022-10-27T01:25:27.073Z,98527.06
2022-10-27T01:28:18.056Z,98527.16
2022-10-27T01:31:00.163Z,98519.22
2022-10-27T01:33:34.379Z,98529.44
2022-10-27T01:36:05.162Z,98528.63
2022-10-27T01:38:35.984Z,98525.41
2022-10-27T01:41:07.852Z,98524.34
2022-10-27T01:43:36.897Z,98525.09
2022-10-27T01:46:08.642Z,98520.75
2022-10-27T01:48:38.266Z,98520.69
2022-10-27T01:51:07.775Z,98528.47
2022-10-27T01:53:38.265Z,98527.91
2022-10-27T01:56:22.964Z,98530.00
2022-10-27T01:58:59.638Z,98535.22
2022-10-27T02:01:37.047Z,98532.31
2022-10-27T02:04:10.369Z,98536.81
2022-10-27T02:06:42.803Z,98532.44
2022-10-27T02:09:14.440Z,98532.50
2022-10-27T02:11:45.796Z,98535.03
2022-10-27T02:14:14.602Z,98532.50
2022-10-27T02:16:47.076Z,98532.41
2022-10-27T02:19:19.529Z,98533.22
2022-10-27T02:21:49.719Z,98534.13
2022-10-27T02:24:18.208Z,98534.88
2022-10-27T02:26:50.249Z,98535.69
2022-10-27T02:29:21.637Z,98536.47
2022-10-27T02:31:53.535Z,98535.38
2022-10-27T02:34:22.113Z,98540.63
2022-10-27T02:36:50.345Z,98533.22
2022-10-27T02:39:18.650Z,98537.44
2022-10-27T02:41:46.872Z,98534.13
2022-10-27T02:44:15.193Z,98541.78
2022-10-27T02:46:45.371Z,98542.44
2022-10-27T02:49:15.337Z,98537.88
2022-10-27T02:51:43.628Z,98535.06
2022-10-27T02:54:11.905Z,98537.59
2022-10-27T02:56:40.257Z,98540.97
2022-10-27T02:59:08.530Z,98538.44
2022-10-27T03:01:37.007Z,98548.69
2022-10-27T03:04:05.431Z,98545.88
2022-10-27T03:06:35.145Z,98545.06
2022-10-27T03:09:03.377Z,98545.97
2022-10-27T03:11:31.768Z,98545.28
2022-10-27T03:14:00.817Z,98549.94
2022-10-27T03:16:29.180Z,98540.47
2022-10-27T03:18:57.569Z,98552.03
2022-10-27T03:21:25.907Z,98544.84
2022-10-27T03:23:55.615Z,98549.00
2022-10-27T03:26:24.966Z,98548.81
2022-10-27T03:28:53.193Z,98558.34
2022-10-27T03:31:21.425Z,98558.38
2022-10-27T03:33:49.693Z,98571.41
2022-10-27T03:36:17.991Z,98568.09
2022-10-27T03:38:46.228Z,98564.13
2022-10-27T03:41:15.900Z,98561.66
2022-10-27T03:43:44.126Z,98566.81
2022-10-27T03:46:12.364Z,98563.31
2022-10-27T03:48:41.090Z,98564.22
2022-10-27T03:51:09.935Z,98559.00
2022-10-27T03:53:38.259Z,98560.69
2022-10-27T03:56:06.844Z,98564.22
2022-10-27T03:58:36.555Z,98561.91
2022-10-27T04:01:06.073Z,98562.78
2022-10-27T04:03:34.579Z,98570.72
2022-10-27T04:06:03.036Z,98569.00
2022-10-27T04:08:31.231Z,98571.84
2022-10-27T04:10:59.536Z,98569.44
2022-10-27T04:13:30.644Z,98578.09
2022-10-27T04:16:02.478Z,98574.50
2022-10-27T04:18:31.025Z,98584.75
2022-10-27T04:21:02.632Z,98582.88
2022-10-27T04:23:31.095Z,98595.72
2022-10-27T04:25:59.588Z,98591.34
2022-10-27T04:28:27.899Z,98595.59
2022-10-27T04:30:56.188Z,98592.16
2022-10-27T04:33:28.225Z,98595.66
2022-10-27T04:35:57.911Z,98592.38
2022-10-27T04:38:26.284Z,98594.09
2022-10-27T04:40:54.733Z,98597.44
2022-10-27T04:43:22.947Z,98610.34
2022-10-27T04:45:52.732Z,98590.59
2022-10-27T04:48:20.984Z,98596.66
2022-10-27T04:50:50.629Z,98600.06
2022-10-27T04:53:18.896Z,98611.19
2022-10-27T04:55:47.912Z,98621.34
2022-10-27T04:58:16.344Z,98622.94
2022-10-27T05:00:44.598Z,98626.19
2022-10-27T05:03:12.869Z,98634.59
2022-10-27T05:05:41.410Z,98630.94
2022-10-27T05:08:12.385Z,98630.69
2022-10-27T05:10:40.614Z,98634.81
2022-10-27T05:13:09.446Z,98630.25
2022-10-27T05:15:37.739Z,98642.16
2022-10-27T05:18:08.102Z,98641.16
2022-10-27T05:20:38.489Z,98647.09
2022-10-27T05:23:07.801Z,98642.66
2022-10-27T05:25:37.484Z,98637.44
2022-10-27T05:28:06.979Z,98639.88
2022-10-27T05:30:35.573Z,98641.50
2022-10-27T05:33:05.045Z,98645.06
2022-10-27T05:35:34.608Z,98641.50
2022-10-27T05:38:04.546Z,98638.00
2022-10-27T05:40:34.623Z,98637.16
2022-10-27T05:43:05.507Z,98643.13
2022-10-27T05:45:34.428Z,98644.09
2022-10-27T05:48:04.433Z,98653.47
2022-10-27T05:50:33.146Z,98654.13
2022-10-27T05:53:01.812Z,98666.13
2022-10-27T05:55:30.116Z,98659.34
2022-10-27T05:58:06.585Z,98657.81
2022-10-27T06:00:37.991Z,98660.53
2022-10-27T06:03:08.553Z,98667.53
2022-10-27T06:05:37.839Z,98672.03
2022-10-27T06:08:07.537Z,98671.63
2022-10-27T06:10:35.845Z,98675.72
2022-10-27T06:13:06.845Z,98680.16
2022-10-27T06:15:35.969Z,98680.91
2022-10-27T06:18:04.805Z,98685.16
2022-10-27T06:20:33.101Z,98692.06
2022-10-27T06:23:01.431Z,98692.19
2022-10-27T06:25:29.769Z,98690.81
2022-10-27T06:27:58.150Z,98705.50
2022-10-27T06:30:27.949Z,98697.88
2022-10-27T06:32:56.621Z,98705.78
2022-10-27T06:35:25.215Z,98702.84
2022-10-27T06:37:54.794Z,98707.59
2022-10-27T06:40:23.093Z,98708.69
2022-10-27T06:43:07.977Z,98716.56
2022-10-27T06:45:38.586Z,98713.31
2022-10-27T06:48:08.664Z,98715.19
2022-10-27T06:50:37.125Z,98716.28
2022-10-27T06:53:05.424Z,98718.41
2022-10-27T06:55:33.839Z,98720.38
2022-10-27T06:58:02.071Z,98725.59
2022-10-27T07:00:30.515Z,98722.97
2022-10-27T07:03:00.429Z,98728.22
2022-10-27T07:05:28.835Z,98734.44
2022-10-27T07:07:57.443Z,98725.88
2022-10-27T07:10:25.955Z,98722.47
2022-10-27T07:12:55.533Z,98725.22
2022-10-27T07:15:24.313Z,98739.19
2022-10-27T07:17:58.849Z,98735.97
2022-10-27T07:20:29.952Z,98735.94
2022-10-27T07:22:58.413Z,98727.41
2022-10-27T07:25:27.095Z,98733.47
2022-10-27T07:27:56.449Z,98735.19
2022-10-27T07:30:26.907Z,98731.94
2022-10-27T07:32:55.409Z,98730.31
2022-10-27T07:35:24.180Z,98733.03
2022-10-27T07:37:54.143Z,98732.41
2022-10-27T07:40:28.559Z,98730.03
2022-10-27T07:43:05.131Z,98730.13
2022-10-27T07:45:37.726Z,98726.03
2022-10-27T07:48:07.516Z,98726.25
2022-10-27T07:50:35.943Z,98723.91
2022-10-27T07:53:06.103Z,98722.25
2022-10-27T07:55:36.853Z,98711.97
2022-10-27T07:58:07.880Z,98713.81
2022-10-27T08:00:38.714Z,98703.50
2022-10-27T08:03:08.082Z,98697.50
2022-10-27T08:05:37.483Z,98696.66
2022-10-27T08:08:08.138Z,98699.25
2022-10-27T08:10:39.194Z,98694.94
2022-10-27T08:13:07.941Z,98694.00
2022-10-27T08:15:37.164Z,98682.53
2022-10-27T08:18:05.841Z,98683.34
2022-10-27T08:20:37.951Z,98680.78
2022-10-27T08:23:09.379Z,98680.72
2022-10-27T08:25:37.869Z,98683.16
2022-10-27T08:28:06.478Z,98675.19
2022-10-27T08:30:40.246Z,98679.41
2022-10-27T08:33:11.417Z,98676.56
2022-10-27T08:35:39.891Z,98676.59
2022-10-27T08:38:13.902Z,98675.31
2022-10-27T08:40:53.371Z,98669.69
2022-10-27T08:43:40.802Z,98671.91
2022-10-27T08:46:13.766Z,98679.38
2022-10-27T08:48:42.458Z,98670.78
2022-10-27T08:51:15.747Z,98673.56
2022-10-27T08:53:47.841Z,98659.31
2022-10-27T08:56:16.606Z,98663.50
2022-10-27T08:58:45.845Z,98664.91
2022-10-27T09:01:24.715Z,98650.81
2022-10-27T09:04:06.797Z,98654.53
2022-10-27T09:06:39.627Z,98648.50
2022-10-27T09:09:14.768Z,98658.22
2022-10-27T09:11:52.074Z,98660.28
2022-10-27T09:14:38.237Z,98655.81
2022-10-27T09:17:12.582Z,98649.94
2022-10-27T09:19:44.512Z,98648.53
2022-10-27T09:22:16.968Z,98647.13
2022-10-27T09:24:48.783Z,98643.13
2022-10-27T09:27:17.448Z,98644.88
2022-10-27T09:29:45.768Z,98636.69
2022-10-27T09:32:19.238Z,98643.09
2022-10-27T09:34:52.021Z,98639.41
2022-10-27T09:37:22.997Z,98646.91
2022-10-27T09:39:58.118Z,98645.19
2022-10-27T09:42:28.969Z,98642.28
2022-10-27T09:44:59.070Z,98639.16
2022-10-27T09:47:31.750Z,98640.09
2022-10-27T09:50:03.078Z,98636.84
2022-10-27T09:52:35.343Z,98637.78
2022-10-27T09:55:05.468Z,98644.00
2022-10-27T09:57:35.894Z,98637.09
2022-10-27T10:00:08.645Z,98644.41
2022-10-27T10:02:47.957Z,98639.41
2022-10-27T10:05:21.485Z,98641.00
2022-10-27T10:07:50.037Z,98632.97
2022-10-27T10:10:28.664Z,98633.38
2022-10-27T10:13:09.741Z,98634.06
2022-10-27T10:15:40.256Z,98636.88
2022-10-27T10:18:23.772Z,98632.06
2022-10-27T10:20:57.761Z,98636.63
2022-10-27T10:23:28.287Z,98634.50
2022-10-27T10:25:59.333Z,98637.81
2022-10-27T10:28:35.183Z,98627.16
2022-10-27T10:31:05.784Z,98634.59
2022-10-27T10:33:36.798Z,98624.13
2022-10-27T10:36:20.316Z,98630.78
2022-10-27T10:38:52.557Z,98624.63
2022-10-27T10:41:22.273Z,98624.75
2022-10-27T10:44:10.209Z,98625.50
2022-10-27T10:46:42.006Z,98620.66
2022-10-27T10:49:20.339Z,98617.34
2022-10-27T10:51:52.778Z,98617.06
2022-10-27T10:54:25.537Z,98617.28
2022-10-27T10:56:56.323Z,98612.63
2022-10-27T10:59:28.548Z,98609.47
2022-10-27T11:02:00.815Z,98604.59
2022-10-27T11:04:32.112Z,98602.66
2022-10-27T11:07:06.408Z,98596.34
2022-10-27T11:09:39.568Z,98597.75
2022-10-27T11:12:18.561Z,98604.19
2022-10-27T11:14:52.358Z,98597.84
2022-10-27T11:17:24.576Z,98596.84
2022-10-27T11:19:56.854Z,98597.19
2022-10-27T11:22:26.511Z,98587.88
2022-10-27T11:24:58.681Z,98586.44
2022-10-27T11:27:34.882Z,98586.28
2022-10-27T11:30:07.516Z,98591.53
2022-10-27T11:32:39.111Z,98578.81
2022-10-27T11:35:14.265Z,98579.91
2022-10-27T11:37:49.072Z,98585.50
2022-10-27T11:40:23.350Z,98586.13
2022-10-27T11:42:57.952Z,98584.91
2022-10-27T11:45:28.752Z,98572.47
2022-10-27T11:48:00.656Z,98575.97
2022-10-27T11:50:32.235Z,98576.28
2022-10-27T11:53:01.549Z,98573.94
2022-10-27T11:55:48.125Z,98576.19
2022-10-27T11:58:26.348Z,98568.63
2022-10-27T12:00:58.611Z,98571.38
2022-10-27T12:03:50.766Z,98559.69
2022-10-27T12:06:28.754Z,98566.59
2022-10-27T12:09:06.111Z,98563.34
2022-10-27T12:11:42.629Z,98553.59
2022-10-27T12:14:17.434Z,98550.22
2022-10-27T12:16:48.801Z,98557.09
2022-10-27T12:19:19.673Z,98550.78
2022-10-27T12:21:50.561Z,98540.09
2022-10-27T12:24:24.023Z,98550.19
2022-10-27T12:26:55.716Z,98548.38
2022-10-27T12:29:30.930Z,98547.97
2022-10-27T12:32:01.797Z,98548.38
2022-10-27T12:34:38.866Z,98542.09
2022-10-27T12:37:12.109Z,98537.28
2022-10-27T12:39:46.652Z,98547.34
2022-10-27T12:42:18.863Z,98547.59
2022-10-27T12:47:53.228Z,98548.06
2022-10-27T12:50:30.684Z,98542.84
2022-10-27T12:53:09.823Z,98545.63
2022-10-27T12:55:49.202Z,98536.00
2022-10-27T12:58:25.417Z,98539.31
2022-10-27T13:00:59.807Z,98525.41
2022-10-27T13:03:55.395Z,98530.13
2022-10-27T13:06:37.949Z,98527.69
2022-10-27T13:09:29.403Z,98521.63
2022-10-27T13:12:16.281Z,98524.75
2022-10-27T13:15:06.709Z,98531.50
2022-10-27T13:17:42.725Z,98522.72
2022-10-27T13:20:19.260Z,98527.22
2022-10-27T13:22:52.444Z,98525.06
2022-10-27T13:25:23.792Z,98522.94
2022-10-27T13:27:57.152Z,98510.84
2022-10-27T13:30:26.390Z,98515.22
2022-10-27T13:32:56.876Z,98515.50
2022-10-27T13:35:35.520Z,98510.53
2022-10-27T13:38:24.645Z,98513.69
2022-10-27T13:40:55.085Z,98512.44
2022-10-27T13:43:58.102Z,98510.84
2022-10-27T13:47:12.169Z,98513.78
2022-10-27T13:49:58.699Z,98502.88
2022-10-27T13:52:33.815Z,98503.31
2022-10-27T13:55:32.961Z,98513.63
2022-10-27T13:58:08.756Z,98505.44
2022-10-27T14:01:12.683Z,98509.16
2022-10-27T14:04:31.082Z,98508.25
2022-10-27T14:07:02.960Z,98508.88
2022-10-27T14:09:35.439Z,98514.69
2022-10-27T14:12:07.310Z,98517.06
2022-10-27T14:14:37.653Z,98522.69
2022-10-27T14:17:14.269Z,98517.66
2022-10-27T14:19:44.616Z,98519.63
2022-10-27T14:22:26.892Z,98521.38
2022-10-27T14:24:59.169Z,98518.84
2022-10-27T14:27:27.610Z,98518.19
2022-10-27T14:30:06.030Z,98531.97
2022-10-27T14:32:34.406Z,98530.72
2022-10-27T14:35:18.190Z,98523.06
2022-10-27T14:37:48.045Z,98536.88
2022-10-27T14:40:19.519Z,98536.34
2022-10-27T14:42:48.058Z,98536.22
2022-10-27T14:45:19.127Z,98526.28
2022-10-27T14:47:51.226Z,98540.03
2022-10-27T14:50:25.418Z,98527.09
2022-10-27T14:52:57.923Z,98541.56
2022-10-27T14:55:31.224Z,98538.03
2022-10-27T14:57:59.883Z,98529.25
2022-10-27T15:00:29.935Z,98536.19
2022-10-27T15:03:00.358Z,98537.19
2022-10-27T15:05:30.362Z,98545.97
2022-10-27T15:08:01.268Z,98539.75
2022-10-27T15:10:34.635Z,98540.66
2022-10-27T15:13:04.545Z,98541.72
2022-10-27T15:15:39.675Z,98541.91
2022-10-27T15:18:20.925Z,98544.78
2022-10-27T15:20:49.863Z,98537.97
2022-10-27T15:23:20.826Z,98539.00
2022-10-27T15:25:52.091Z,98544.50
2022-10-27T15:28:25.968Z,98543.88
2022-10-27T15:30:54.890Z,98537.13
2022-10-27T15:33:33.314Z,98540.78
2022-10-27T15:36:12.321Z,98534.84
2022-10-27T15:38:42.759Z,98545.56
2022-10-27T15:41:17.237Z,98547.53
2022-10-27T15:43:50.941Z,98549.50
2022-10-27T15:46:31.095Z,98544.47
2022-10-27T15:49:17.395Z,98543.75
2022-10-27T15:51:48.567Z,98544.00
2022-10-27T15:54:25.398Z,98554.69
2022-10-27T15:56:54.762Z,98559.22
2022-10-27T15:59:24.379Z,98560.34
2022-10-27T16:01:56.668Z,98564.00
2022-10-27T16:04:30.352Z,98564.25
2022-10-27T16:07:30.371Z,98565.25
2022-10-27T16:10:01.085Z,98565.44
2022-10-27T16:12:35.731Z,98560.34
2022-10-27T16:15:06.893Z,98567.47
2022-10-27T16:17:41.027Z,98558.88
2022-10-27T16:20:16.475Z,98567.69
2022-10-27T16:22:45.511Z,98573.13
2022-10-27T16:25:16.400Z,98580.84
2022-10-27T16:27:45.280Z,98576.50
2022-10-27T16:30:17.204Z,98588.88
2022-10-27T16:32:46.005Z,98586.44
2022-10-27T16:35:15.602Z,98584.84
2022-10-27T16:37:44.915Z,98586.41
2022-10-27T16:40:16.284Z,98597.00
2022-10-27T16:42:46.449Z,98600.44
2022-10-27T16:45:15.810Z,98601.50
2022-10-27T16:47:44.976Z,98605.91
2022-10-27T16:50:17.159Z,98601.63
2022-10-27T16:52:45.678Z,98607.88
2022-10-27T16:55:16.278Z,98606.25
2022-10-27T16:57:48.860Z,98614.94
2022-10-27T17:00:19.713Z,98609.81
2022-10-27T17:02:51.116Z,98613.22
2022-10-27T17:05:21.207Z,98616.78
2022-10-27T17:07:51.339Z,98611.63
2022-10-27T17:10:32.868Z,98618.53
2022-10-27T17:13:02.658Z,98617.66
2022-10-27T17:15:32.987Z,98634.19
2022-10-27T17:18:03.172Z,98629.03
2022-10-27T17:20:34.539Z,98635.97
2022-10-27T17:23:05.475Z,98643.78
2022-10-27T17:25:36.960Z,98647.22
2022-10-27T17:28:06.627Z,98651.59
2022-10-27T17:30:36.415Z,98651.59
2022-10-27T17:33:05.940Z,98654.19
2022-10-27T17:35:35.415Z,98648.97
2022-10-27T17:38:04.773Z,98649.00
2022-10-27T17:40:33.681Z,98653.31
2022-10-27T17:43:04.838Z,98661.97
2022-10-27T17:45:35.083Z,98669.81
2022-10-27T17:48:05.347Z,98659.38
2022-10-27T17:50:35.518Z,98661.09
2022-10-27T17:53:05.917Z,98668.03
2022-10-27T17:55:35.568Z,98674.09
2022-10-27T17:58:06.545Z,98671.47
2022-10-27T18:00:43.173Z,98672.34
2022-10-27T18:03:15.924Z,98669.75
2022-10-27T18:05:45.647Z,98674.94
2022-10-27T18:08:15.537Z,98672.31
2022-10-27T18:10:48.138Z,98678.34
2022-10-27T18:13:20.263Z,98687.88
2022-10-27T18:15:53.721Z,98683.63
2022-10-27T18:18:23.839Z,98685.28
2022-10-27T18:20:53.498Z,98692.06
2022-10-27T18:23:26.034Z,98700.63
2022-10-27T18:25:57.333Z,98704.16
2022-10-27T18:28:28.125Z,98697.22
2022-10-27T18:31:03.618Z,98700.59
2022-10-27T18:33:34.990Z,98706.59
2022-10-27T18:36:09.360Z,98696.22
2022-10-27T18:38:39.331Z,98696.28
2022-10-27T18:41:11.427Z,98698.00
2022-10-27T18:43:42.678Z,98699.78
2022-10-27T18:46:14.135Z,98698.81
2022-10-27T18:48:45.970Z,98699.69
2022-10-27T18:51:16.643Z,98703.09
2022-10-27T18:53:45.797Z,98697.97
2022-10-27T18:56:17.440Z,98702.25
2022-10-27T18:58:54.889Z,98703.00
2022-10-27T19:01:27.953Z,98703.84
2022-10-27T19:04:13.111Z,98703.13
2022-10-27T19:06:43.203Z,98695.28
2022-10-27T19:09:15.358Z,98697.63
2022-10-27T19:11:45.313Z,98707.94
2022-10-27T19:14:17.923Z,98707.16
2022-10-27T19:16:51.586Z,98702.78
2022-10-27T19:19:29.488Z,98710.63
2022-10-27T19:21:59.214Z,98701.94
2022-10-27T19:24:33.379Z,98708.09
2022-10-27T19:27:02.376Z,98705.41
2022-10-27T19:29:34.828Z,98712.19
2022-10-27T19:32:07.845Z,98709.75
2022-10-27T19:34:37.592Z,98712.03
2022-10-27T19:37:07.702Z,98716.50
2022-10-27T19:39:37.819Z,98716.56
2022-10-27T19:42:08.270Z,98722.75
2022-10-27T19:44:42.864Z,98715.66
2022-10-27T19:47:13.022Z,98725.28
2022-10-27T19:49:43.840Z,98723.41
2022-10-27T19:52:14.171Z,98723.44
2022-10-27T19:54:45.233Z,98726.75
2022-10-27T19:57:15.223Z,98730.44
2022-10-27T19:59:47.218Z,98728.00
2022-10-27T20:02:17.052Z,98730.25
2022-10-27T20:04:47.466Z,98736.19
2022-10-27T20:07:17.182Z,98733.47
2022-10-27T20:09:48.362Z,98734.44
2022-10-27T20:12:18.099Z,98734.47
2022-10-27T20:14:50.125Z,98741.09
2022-10-27T20:17:20.175Z,98743.94
2022-10-27T20:19:52.548Z,98744.59
2022-10-27T20:22:22.438Z,98738.47
2022-10-27T20:24:55.018Z,98735.03
2022-10-27T20:27:25.798Z,98738.34
2022-10-27T20:29:57.173Z,98734.13
2022-10-27T20:32:27.563Z,98733.47
2022-10-27T20:34:56.760Z,98728.81
2022-10-27T20:37:25.666Z,98740.00
2022-10-27T20:39:54.147Z,98739.16
2022-10-27T20:42:24.821Z,98732.38
2022-10-27T20:44:53.886Z,98733.22
2022-10-27T20:47:24.309Z,98738.13
2022-10-27T20:49:52.776Z,98738.06
2022-10-27T20:52:22.966Z,98741.69
2022-10-27T20:54:51.778Z,98739.09
2022-10-27T20:57:20.096Z,98744.09
2022-10-27T20:59:49.470Z,98747.53
2022-10-27T21:02:19.120Z,98750.00
2022-10-27T21:04:51.400Z,98744.09
2022-10-27T21:07:20.120Z,98749.00
2022-10-27T21:09:48.733Z,98740.72
2022-10-27T21:12:17.540Z,98737.97
2022-10-27T21:14:46.737Z,98738.78
2022-10-27T21:17:15.022Z,98743.97
2022-10-27T21:19:43.297Z,98749.00
2022-10-27T21:22:12.935Z,98748.94
2022-10-27T21:24:41.344Z,98752.19
2022-10-27T21:27:10.067Z,98754.16
2022-10-27T21:29:39.712Z,98748.53
2022-10-27T21:32:08.133Z,98751.59
2022-10-27T21:34:36.784Z,98746.22
2022-10-27T21:37:05.462Z,98748.88
2022-10-27T21:39:35.152Z,98752.44
2022-10-27T21:42:03.434Z,98751.56
2022-10-27T21:44:31.708Z,98741.19
2022-10-27T21:47:00.498Z,98736.13
2022-10-27T21:49:28.769Z,98737.81
2022-10-27T21:51:57.033Z,98741.09
2022-10-27T21:54:25.755Z,98742.66
2022-10-27T21:56:55.464Z,98745.22
2022-10-27T21:59:23.733Z,98753.09
2022-10-27T22:01:52.058Z,98752.22
2022-10-27T22:04:21.533Z,98741.16
2022-10-27T22:06:51.110Z,98747.88
2022-10-27T22:11:49.745Z,98744.44
2022-10-27T22:14:19.434Z,98745.44
2022-10-27T22:16:47.806Z,98742.63
2022-10-27T22:19:16.916Z,98739.84
2022-10-27T22:21:45.214Z,98736.25
2022-10-27T22:24:13.649Z,98738.91
2022-10-27T22:26:42.084Z,98742.22
2022-10-27T22:29:11.121Z,98747.31
2022-10-27T22:31:40.762Z,98747.19
2022-10-27T22:34:11.102Z,98741.16
2022-10-27T22:36:39.494Z,98741.06
2022-10-27T22:39:07.940Z,98737.59
2022-10-27T22:41:36.922Z,98742.75
2022-10-27T22:44:06.392Z,98740.16
2022-10-27T22:46:36.100Z,98742.75
2022-10-27T22:49:05.784Z,98745.28
2022-10-27T22:51:34.325Z,98741.63
2022-10-27T22:54:02.766Z,98747.00
2022-10-27T22:56:33.145Z,98746.97
2022-10-27T22:59:03.806Z,98742.31
2022-10-27T23:01:34.945Z,98740.47
2022-10-27T23:04:05.932Z,98742.16
2022-10-27T23:06:35.866Z,98745.56
2022-10-27T23:09:06.522Z,98748.84
2022-10-27T23:11:36.324Z,98750.06
2022-10-27T23:14:04.944Z,98753.81
2022-10-27T23:16:34.079Z,98742.66
2022-10-27T23:19:02.904Z,98739.44
2022-10-27T23:21:32.984Z,98738.28
2022-10-27T23:24:02.074Z,98737.09
2022-10-27T23:26:31.704Z,98742.94
2022-10-27T23:29:01.516Z,98741.41
2022-10-27T23:31:32.159Z,98744.03
2022-10-27T23:34:02.256Z,98746.03
2022-10-27T23:36:33.427Z,98739.16
2022-10-27T23:39:01.966Z,98741.03
2022-10-27T23:41:31.256Z,98732.28
2022-10-27T23:44:00.604Z,98739.09
2022-10-27T23:46:29.543Z,98732.19
2022-10-27T23:48:58.067Z,98733.88
2022-10-27T23:51:26.440Z,98732.84
2022-10-27T23:53:56.785Z,98730.13
2022-10-27T23:56:25.697Z,98730.06
2022-10-27T23:58:54.085Z,98728.34
